ADDS METAR Data INFO
IDs: Format: Raw Decoded Include TAF

Data at: 1130 UTC 17 Jul 2018

KCDW 171053Z AUTO 21003KT 8SM CLR 25/23 A2987 RMK AO2 SLP118 T02500233
KCDW 170953Z AUTO VRB03KT 8SM CLR 24/23 A2987 RMK AO2 SLP119 T02440228
KCDW 170853Z AUTO VRB03KT 10SM CLR 25/23 A2988 RMK AO2 SLP120 T02500228 56011
KCDW 170753Z AUTO VRB04KT 10SM CLR 26/22 A2988 RMK AO2 SLP121 T02560222
KCDW 170653Z 00000KT 10SM CLR 26/23 A2989 RMK AO2 SLP126 T02610228
KCDW 170553Z 00000KT 10SM CLR 26/23 A2991 RMK AO2 SLP131 T02610228 10306 20261 51003
KCDW 170453Z 00000KT 10SM CLR 27/23 A2991 RMK AO2 SLP130 T02670228 403390211
KCDW 170353Z 25003KT 10SM CLR 28/22 A2991 RMK AO2 SLP132 T02780222
KCDW 170253Z VRB03KT 10SM SCT050 28/22 A2990 RMK AO2 SLP128 T02830217 50004
KCDW 170153Z VRB03KT 10SM CLR 29/22 A2991 RMK AO2 SLP131 T02940222
KCDW 170053Z 16006KT 10SM FEW060 31/23 A2989 RMK AO2 SLP124 T03060228
KCDW 162353Z 13005KT 10SM CLR 29/23 A2989 RMK AO2 SLP124 T02940228 10339 20294 56006
KCDW 162253Z 16007KT 10SM CLR 31/23 A2989 RMK AO2 SLP125 T03110228
KCDW 162153Z AUTO 14003KT 10SM CLR 31/22 A2989 RMK AO2 LTG DSNT NE SLP126 T03110222
KCDW 162053Z AUTO VRB03KT 10SM CLR 32/21 A2991 RMK AO2 SLP130 T03220206 56013
KCDW 161953Z 21007KT 180V250 10SM CLR 33/21 A2991 RMK AO2 SLP131 T03330206
KCDW 161853Z VRB06KT 10SM CLR 33/21 A2993 RMK AO2 SLP137 T03330206
KCDW 161753Z VRB05KT 10SM FEW046 33/22 A2994 RMK AO2 SLP143 T03280217 10328 20244 58014
KCDW 161653Z VRB04KT 10SM FEW040 32/22 A2996 RMK AO2 SLP149 T03170217
KCDW 161553Z 22005KT 10SM CLR 31/22 A2997 RMK AO2 SLP153 T03110222
KCDW 161453Z VRB04KT 10SM CLR 29/23 A2999 RMK AO2 SLP157 T02940228 58005
KCDW 161353Z VRB03KT 10SM CLR 29/23 A3000 RMK AO2 SLP161 T02890228
KCDW 161253Z VRB03KT 10SM CLR 27/23 A3000 RMK AO2 SLP161 T02670228 $
KCDW 161153Z 26003KT 10SM CLR 24/22 A3000 RMK AO2 RAB38E43 SLP162 P0000 60000 7//// T02440217 10244 20211 51010 $
KCDW 161144Z 21003KT 10SM FEW003 24/22 A3000 RMK AO2 RAB38E43 P0000 T02390217 $
KCDW 161053Z AUTO VRB03KT 10SM CLR 23/22 A2999 RMK AO2 SLP159 T02280217 $
KCDW 160953Z AUTO 00000KT 10SM CLR 22/21 A2999 RMK AO2 SLP157 T02220211 $
KCDW 160853Z AUTO 00000KT 10SM CLR 22/21 A2997 RMK AO2 SLP152 T02220211 58003 $
KCDW 160753Z AUTO VRB03KT 10SM CLR 23/21 A2998 RMK AO2 SLP155 T02280211 $
KCDW 160653Z AUTO 00000KT 10SM CLR 23/21 A2998 RMK AO2 SLP157 T02280211 $
KCDW 160553Z AUTO 00000KT 10SM CLR 23/22 A2998 RMK AO2 SLP156 T02330217 10278 20233 50002 $
KCDW 160453Z AUTO 00000KT 10SM CLR 24/22 A2998 RMK AO2 SLP157 T02390217 403000206 $
KCDW 160353Z AUTO 00000KT 10SM CLR 24/22 A2998 RMK AO2 SLP156 T02440217 $
KCDW 160253Z AUTO 00000KT 10SM CLR 26/22 A2998 RMK AO2 SLP154 T02560217 51010 $
KCDW 160153Z 00000KT 10SM CLR 26/21 A2997 RMK AO2 SLP154 T02610211 $
KCDW 160053Z 22004KT 10SM CLR 27/21 A2996 RMK AO2 SLP149 T02670206 $
KCDW 152353Z 23003KT 10SM SCT120 28/20 A2994 RMK AO2 SLP144 6//// T02780200 10300 20244 53001 $